createdAt,value
2022-09-04T00:00:15.018Z,100992.07
2022-09-04T00:03:05.151Z,100989.24
2022-09-04T00:05:50.456Z,100992.40
2022-09-04T00:08:42.794Z,100981.17
2022-09-04T00:11:23.783Z,100978.70
2022-09-04T00:13:58.793Z,100983.23
2022-09-04T00:16:48.312Z,100981.65
2022-09-04T00:19:46.028Z,100980.74
2022-09-04T00:22:42.412Z,100981.75
2022-09-04T00:25:32.374Z,100981.33
2022-09-04T00:28:28.564Z,100981.61
2022-09-04T00:31:05.966Z,100978.73
2022-09-04T00:34:07.637Z,100981.54
2022-09-04T00:36:41.163Z,100984.33
2022-09-04T00:39:40.458Z,100986.59
2022-09-04T00:42:53.669Z,100992.00
2022-09-04T00:45:28.117Z,100995.13
2022-09-04T00:48:08.701Z,100994.58
2022-09-04T00:50:55.979Z,100993.50
2022-09-04T00:53:37.930Z,100988.91
2022-09-04T00:56:38.898Z,100990.06
2022-09-04T00:59:26.853Z,100985.63
2022-09-04T01:02:06.875Z,100988.77
2022-09-04T01:04:40.709Z,100988.94
2022-09-04T01:07:24.242Z,100984.58
2022-09-04T01:10:30.770Z,100984.59
2022-09-04T01:13:27.898Z,100989.65
2022-09-04T01:16:05.600Z,100995.44
2022-09-04T01:18:44.353Z,100994.38
2022-09-04T01:21:30.589Z,100991.38
2022-09-04T01:24:18.278Z,100986.80
2022-09-04T01:27:21.790Z,100987.30
2022-09-04T01:30:21.846Z,100988.48
2022-09-04T01:33:24.644Z,100987.02
2022-09-04T01:36:11.536Z,100985.92
2022-09-04T01:38:59.205Z,100977.09
2022-09-04T01:41:38.217Z,100981.02
2022-09-04T01:44:09.898Z,100981.13
2022-09-04T01:47:03.613Z,100984.43
2022-09-04T01:49:44.313Z,100983.75
2022-09-04T01:52:22.034Z,100975.86
2022-09-04T01:54:57.411Z,100973.91
2022-09-04T01:57:50.443Z,100974.44
2022-09-04T02:00:23.697Z,100977.38
2022-09-04T02:03:02.460Z,100978.05
2022-09-04T02:05:45.697Z,100977.01
2022-09-04T02:08:45.690Z,100977.16
2022-09-04T02:11:27.781Z,100973.63
2022-09-04T02:14:09.735Z,100970.61
2022-09-04T02:17:00.689Z,100973.95
2022-09-04T02:20:16.717Z,100968.41
2022-09-04T02:23:12.095Z,100968.17
2022-09-04T02:26:29.525Z,100968.59
2022-09-04T02:29:03.805Z,100964.23
2022-09-04T02:32:00.348Z,100961.13
2022-09-04T02:34:45.508Z,100953.45
2022-09-04T02:37:26.727Z,100956.46
2022-09-04T02:40:13.823Z,100954.04
2022-09-04T02:43:04.093Z,100954.92
2022-09-04T02:45:42.852Z,100952.82
2022-09-04T02:49:08.262Z,100956.00
2022-09-04T02:51:55.121Z,100954.66
2022-09-04T02:54:39.086Z,100954.86
2022-09-04T02:57:48.201Z,100955.58
2022-09-04T03:00:21.377Z,100961.73
2022-09-04T03:03:01.749Z,100962.10
2022-09-04T03:05:33.672Z,100960.17
2022-09-04T03:08:13.736Z,100960.52
2022-09-04T03:10:48.502Z,100960.85
2022-09-04T03:13:35.973Z,100959.81
2022-09-04T03:16:32.695Z,100964.54
2022-09-04T03:19:13.037Z,100963.87
2022-09-04T03:22:11.039Z,100967.91
2022-09-04T03:25:05.490Z,100976.16
2022-09-04T03:27:34.846Z,100975.29
2022-09-04T03:30:10.690Z,100977.73
2022-09-04T03:32:57.396Z,100977.39
2022-09-04T03:35:34.797Z,100978.78
2022-09-04T03:38:20.743Z,100976.51
2022-09-04T03:41:26.544Z,100978.07
2022-09-04T03:44:36.493Z,100972.84
2022-09-04T03:47:15.922Z,100969.88
2022-09-04T03:49:44.339Z,100971.10
2022-09-04T03:52:28.212Z,100973.20
2022-09-04T03:55:23.750Z,100977.60
2022-09-04T03:58:21.554Z,100975.30
2022-09-04T04:00:57.362Z,100980.39
2022-09-04T04:03:56.486Z,100980.02
2022-09-04T04:06:56.474Z,100981.77
2022-09-04T04:09:27.176Z,100987.38
2022-09-04T04:12:04.578Z,100990.71
2022-09-04T04:14:47.562Z,100993.36
2022-09-04T04:17:24.840Z,100998.45
2022-09-04T04:20:18.702Z,100999.02
2022-09-04T04:22:55.166Z,100999.91
2022-09-04T04:25:52.403Z,101004.64
2022-09-04T04:28:42.742Z,101003.77
2022-09-04T04:31:20.166Z,101007.98
2022-09-04T04:34:25.562Z,101009.20
2022-09-04T04:37:09.440Z,101010.40
2022-09-04T04:40:02.506Z,101010.59
2022-09-04T04:42:44.477Z,101007.45
2022-09-04T04:45:37.296Z,101011.35
2022-09-04T04:48:27.069Z,101011.69
2022-09-04T04:51:14.070Z,101010.66
2022-09-04T04:54:27.954Z,101014.17
2022-09-04T04:57:02.357Z,101016.63
2022-09-04T05:00:08.725Z,101020.87
2022-09-04T05:02:43.104Z,101027.73
2022-09-04T05:05:41.836Z,101031.80
2022-09-04T05:08:15.234Z,101038.34
2022-09-04T05:11:27.096Z,101036.45
2022-09-04T05:14:27.646Z,101039.83
2022-09-04T05:17:17.688Z,101041.63
2022-09-04T05:20:18.593Z,101042.38
2022-09-04T05:23:12.395Z,101045.77
2022-09-04T05:25:51.231Z,101050.89
2022-09-04T05:28:53.389Z,101049.31
2022-09-04T05:31:43.367Z,101055.13
2022-09-04T05:34:14.396Z,101056.52
2022-09-04T05:37:21.453Z,101056.17
2022-09-04T05:40:01.296Z,101060.39
2022-09-04T05:43:00.377Z,101063.54
2022-09-04T05:46:03.897Z,101066.00
2022-09-04T05:48:43.337Z,101064.97
2022-09-04T05:51:30.008Z,101068.66
2022-09-04T05:54:33.317Z,101068.33
2022-09-04T05:57:36.597Z,101066.23
2022-09-04T06:00:14.890Z,101069.10
2022-09-04T06:02:46.666Z,101071.45
2022-09-04T06:05:37.005Z,101075.91
2022-09-04T06:08:33.448Z,101073.70
2022-09-04T06:11:23.526Z,101074.45
2022-09-04T06:14:05.011Z,101074.69
2022-09-04T06:16:58.561Z,101075.59
2022-09-04T06:19:51.639Z,101077.59
2022-09-04T06:22:55.791Z,101076.95
2022-09-04T06:26:00.491Z,101081.76
2022-09-04T06:28:49.056Z,101089.18
2022-09-04T06:31:20.093Z,101089.06
2022-09-04T06:34:26.653Z,101092.27
2022-09-04T06:37:00.953Z,101083.70
2022-09-04T06:39:32.667Z,101091.83
2022-09-04T06:42:15.181Z,101091.15
2022-09-04T06:44:53.901Z,101096.33
2022-09-04T06:47:28.241Z,101096.19
2022-09-04T06:50:14.085Z,101096.21
2022-09-04T06:53:04.548Z,101097.48
2022-09-04T06:55:46.059Z,101104.89
2022-09-04T06:58:19.597Z,101105.27
2022-09-04T07:01:09.129Z,101109.51
2022-09-04T07:04:05.133Z,101117.63
2022-09-04T07:06:59.683Z,101125.88
2022-09-04T07:10:05.116Z,101126.97
2022-09-04T07:12:53.378Z,101134.55
2022-09-04T07:15:44.965Z,101138.80
2022-09-04T07:18:38.112Z,101142.52
2022-09-04T07:21:43.019Z,101142.19
2022-09-04T07:24:17.742Z,101150.13
2022-09-04T07:27:15.987Z,101146.60
2022-09-04T07:30:04.674Z,101152.60
2022-09-04T07:32:55.687Z,101154.91
2022-09-04T07:35:32.800Z,101155.81
2022-09-04T07:38:29.437Z,101154.58
2022-09-04T07:41:10.814Z,101155.98
2022-09-04T07:43:43.416Z,101157.56
2022-09-04T07:46:49.796Z,101157.20
2022-09-04T07:49:21.449Z,101151.91
2022-09-04T07:51:56.287Z,101153.50
2022-09-04T07:54:53.830Z,101152.07
2022-09-04T07:57:53.900Z,101152.05
2022-09-04T08:00:23.036Z,101155.53
2022-09-04T08:03:18.058Z,101156.59
2022-09-04T08:05:52.432Z,101153.02
2022-09-04T08:08:40.031Z,101149.65
2022-09-04T08:11:38.485Z,101151.02
2022-09-04T08:14:28.862Z,101154.39
2022-09-04T08:17:06.617Z,101152.23
2022-09-04T08:19:46.458Z,101150.77
2022-09-04T08:22:28.269Z,101152.33
2022-09-04T08:25:24.251Z,101153.33
2022-09-04T08:28:00.250Z,101163.86
2022-09-04T08:31:02.449Z,101158.49
2022-09-04T08:33:54.350Z,101155.04
2022-09-04T08:36:42.313Z,101157.41
2022-09-04T08:39:20.514Z,101157.69
2022-09-04T08:42:14.940Z,101161.16
2022-09-04T08:44:46.115Z,101163.05
2022-09-04T08:47:20.072Z,101162.12
2022-09-04T08:50:06.893Z,101161.00
2022-09-04T08:53:03.741Z,101160.56
2022-09-04T08:55:50.217Z,101165.25
2022-09-04T08:58:30.443Z,101166.75
2022-09-04T09:01:37.114Z,101164.36
2022-09-04T09:04:14.648Z,101169.39
2022-09-04T09:07:31.483Z,101166.49
2022-09-04T09:10:33.620Z,101165.54
2022-09-04T09:13:36.957Z,101166.05
2022-09-04T09:16:36.727Z,101164.24
2022-09-04T09:19:24.400Z,101161.69
2022-09-04T09:22:40.411Z,101162.14
2022-09-04T09:25:22.328Z,101155.14
2022-09-04T09:28:15.092Z,101160.41
2022-09-04T09:31:10.957Z,101161.58
2022-09-04T09:33:57.655Z,101163.98
2022-09-04T09:36:36.356Z,101163.23
2022-09-04T09:39:07.311Z,101164.02
2022-09-04T09:42:07.821Z,101165.36
2022-09-04T09:45:07.060Z,101161.21
2022-09-04T09:48:11.506Z,101163.93
2022-09-04T09:50:55.667Z,101163.88
2022-09-04T09:53:47.422Z,101158.34
2022-09-04T09:56:34.379Z,101164.69
2022-09-04T09:59:10.970Z,101163.77
2022-09-04T10:01:58.843Z,101160.13
2022-09-04T10:04:49.642Z,101165.71
2022-09-04T10:07:55.198Z,101164.58
2022-09-04T10:10:56.039Z,101161.64
2022-09-04T10:13:51.041Z,101162.77
2022-09-04T10:16:38.189Z,101154.54
2022-09-04T10:19:10.322Z,101155.50
2022-09-04T10:22:11.175Z,101155.83
2022-09-04T10:24:52.024Z,101157.21
2022-09-04T10:27:54.572Z,101154.44
2022-09-04T10:30:49.803Z,101156.91
2022-09-04T10:38:04.124Z,101149.43
2022-09-04T10:41:21.744Z,101147.21
2022-09-04T10:44:47.536Z,101158.17
2022-09-04T10:50:54.344Z,101158.60
2022-09-04T10:53:53.088Z,101153.23
2022-09-04T10:56:50.803Z,101155.98
2022-09-04T10:59:36.341Z,101161.06
2022-09-04T11:02:36.891Z,101165.10
2022-09-04T11:05:24.984Z,101163.73
2022-09-04T11:08:45.846Z,101162.31
2022-09-04T11:11:42.136Z,101153.73
2022-09-04T11:14:29.537Z,101149.27
2022-09-04T11:17:24.352Z,101150.94
2022-09-04T11:20:35.311Z,101154.52
2022-09-04T11:23:28.613Z,101153.95
2022-09-04T11:26:55.606Z,101160.02
2022-09-04T11:30:10.462Z,101162.63
2022-09-04T11:32:55.644Z,101160.77
2022-09-04T11:36:06.140Z,101159.43
2022-09-04T11:39:12.371Z,101159.09
2022-09-04T11:41:43.409Z,101159.23
2022-09-04T11:44:26.800Z,101160.86
2022-09-04T11:51:40.928Z,101162.92
2022-09-04T11:54:47.460Z,101169.14
2022-09-04T11:57:59.598Z,101165.08
2022-09-04T12:01:16.891Z,101164.37
2022-09-04T12:04:04.009Z,101166.02
2022-09-04T12:06:54.883Z,101166.48
2022-09-04T12:09:35.434Z,101164.02
2022-09-04T12:12:12.822Z,101160.18
2022-09-04T12:15:07.370Z,101157.98
2022-09-04T12:21:42.107Z,101153.42
2022-09-04T12:24:51.943Z,101145.81
2022-09-04T12:27:26.260Z,101142.27
2022-09-04T12:30:51.677Z,101139.55
2022-09-04T12:38:01.054Z,101141.80
2022-09-04T12:41:30.170Z,101143.23
2022-09-04T12:44:17.510Z,101137.82
2022-09-04T12:47:14.371Z,101141.83
2022-09-04T12:49:49.004Z,101137.08
2022-09-04T12:52:23.249Z,101141.86
2022-09-04T12:55:01.753Z,101146.11
2022-09-04T12:58:13.813Z,101144.52
2022-09-04T13:01:32.360Z,101140.52
2022-09-04T13:04:28.998Z,101139.27
2022-09-04T13:07:15.700Z,101145.05
2022-09-04T13:10:13.564Z,101141.10
2022-09-04T13:12:53.320Z,101150.12
2022-09-04T13:16:09.657Z,101144.02
2022-09-04T13:19:10.674Z,101137.39
2022-09-04T13:22:06.303Z,101140.96
2022-09-04T13:28:11.612Z,101144.63
2022-09-04T13:31:09.662Z,101147.87
2022-09-04T13:33:41.122Z,101152.27
2022-09-04T13:39:57.408Z,101148.77
2022-09-04T13:42:35.073Z,101145.33
2022-09-04T13:45:09.309Z,101141.76
2022-09-04T13:49:25.573Z,101140.14
2022-09-04T13:51:59.900Z,101145.37
2022-09-04T13:54:57.010Z,101144.29
2022-09-04T13:57:30.667Z,101147.73
2022-09-04T14:03:55.614Z,101146.48
2022-09-04T14:06:33.326Z,101147.47
2022-09-04T14:09:06.024Z,101146.30
2022-09-04T14:12:20.296Z,101152.83
2022-09-04T14:16:17.075Z,101148.16
2022-09-04T14:19:15.886Z,101151.52
2022-09-04T14:22:25.865Z,101154.06
2022-09-04T14:25:13.278Z,101154.36
2022-09-04T14:28:35.629Z,101157.70
2022-09-04T14:31:25.096Z,101151.19
2022-09-04T14:34:38.221Z,101149.64
2022-09-04T14:37:16.595Z,101147.30
2022-09-04T14:39:55.411Z,101147.80
2022-09-04T14:42:44.820Z,101145.42
2022-09-04T14:45:48.532Z,101150.64
2022-09-04T14:48:22.575Z,101151.83
2022-09-04T14:51:41.195Z,101154.99
2022-09-04T14:54:28.990Z,101155.48
2022-09-04T14:57:11.703Z,101156.32
2022-09-04T15:00:07.159Z,101155.45
2022-09-04T15:02:58.996Z,101153.95
2022-09-04T15:05:34.742Z,101151.42
2022-09-04T15:08:11.872Z,101150.31
2022-09-04T15:11:09.957Z,101156.89
2022-09-04T15:14:24.693Z,101155.73
2022-09-04T15:17:03.628Z,101153.57
2022-09-04T15:19:46.856Z,101156.44
2022-09-04T15:22:49.335Z,101156.45
2022-09-04T15:26:06.910Z,101159.77
2022-09-04T15:28:43.348Z,101158.86
2022-09-04T15:31:17.945Z,101157.34
2022-09-04T15:33:49.596Z,101154.22
2022-09-04T15:36:25.967Z,101160.73
2022-09-04T15:39:02.493Z,101156.95
2022-09-04T15:41:56.013Z,101155.84
2022-09-04T15:44:40.959Z,101155.78
2022-09-04T15:48:19.583Z,101157.83
2022-09-04T15:54:21.733Z,101152.45
2022-09-04T15:56:53.147Z,101152.04
2022-09-04T15:59:30.670Z,101153.01
2022-09-04T16:02:19.925Z,101154.60
2022-09-04T16:05:39.830Z,101158.77
2022-09-04T16:08:27.188Z,101156.39
2022-09-04T16:11:16.091Z,101160.20
2022-09-04T16:13:56.942Z,101155.34
2022-09-04T16:16:58.032Z,101161.11
2022-09-04T16:19:42.364Z,101163.91
2022-09-04T16:22:26.643Z,101163.54
2022-09-04T16:25:08.861Z,101162.38
2022-09-04T16:27:52.604Z,101165.81
2022-09-04T16:30:30.453Z,101171.92
2022-09-04T16:33:00.747Z,101173.95
2022-09-04T16:35:36.552Z,101174.88
2022-09-04T16:38:26.109Z,101179.19
2022-09-04T16:41:18.299Z,101182.10
2022-09-04T16:44:12.149Z,101180.95
2022-09-04T16:47:21.647Z,101185.50
2022-09-04T16:50:00.466Z,101188.98
2022-09-04T16:53:13.559Z,101192.27
2022-09-04T16:56:52.717Z,101195.59
2022-09-04T16:59:48.986Z,101199.45
2022-09-04T17:02:45.728Z,101202.92
2022-09-04T17:05:17.977Z,101201.48
2022-09-04T17:09:05.757Z,101202.52
2022-09-04T17:11:55.343Z,101206.15
2022-09-04T17:15:06.820Z,101206.15
2022-09-04T17:17:59.841Z,101213.23
2022-09-04T17:21:38.293Z,101216.27
2022-09-04T17:29:03.302Z,101221.77
2022-09-04T17:31:50.389Z,101230.30
2022-09-04T17:40:50.145Z,101238.38
2022-09-04T17:40:56.106Z,101234.70
2022-09-04T17:42:21.050Z,101240.23
2022-09-04T17:45:02.684Z,101246.52
2022-09-04T17:47:38.389Z,101253.66
2022-09-04T17:50:16.999Z,101255.85
2022-09-04T17:53:25.059Z,101259.64
2022-09-04T17:57:23.612Z,101264.00
2022-09-04T18:00:12.337Z,101266.05
2022-09-04T18:03:40.091Z,101277.27
2022-09-04T18:06:50.038Z,101274.19
2022-09-04T18:09:55.602Z,101280.11
2022-09-04T18:12:47.832Z,101284.62
2022-09-04T18:15:35.081Z,101282.58
2022-09-04T18:18:24.997Z,101284.08
2022-09-04T18:21:26.989Z,101290.88
2022-09-04T18:27:01.921Z,101305.33
2022-09-04T18:33:25.300Z,101311.20
2022-09-04T18:37:19.447Z,101319.96
2022-09-04T18:37:23.203Z,101313.73
2022-09-04T18:39:24.757Z,101322.30
2022-09-04T18:50:21.797Z,101328.00
2022-09-04T18:50:50.777Z,101334.02
2022-09-04T18:50:53.391Z,101337.22
2022-09-04T18:51:35.696Z,101337.95
2022-09-04T18:54:22.847Z,101339.56
2022-09-04T18:57:06.647Z,101337.46
2022-09-04T18:59:44.259Z,101339.25
2022-09-04T19:02:29.838Z,101341.03
2022-09-04T19:05:09.394Z,101342.12
2022-09-04T19:07:49.747Z,101344.27
2022-09-04T19:10:35.246Z,101348.37
2022-09-04T19:14:27.542Z,101350.86
2022-09-04T19:17:49.000Z,101355.48
2022-09-04T19:20:42.969Z,101361.88
2022-09-04T19:27:33.267Z,101371.45
2022-09-04T19:30:34.352Z,101374.25
2022-09-04T19:33:21.013Z,101372.84
2022-09-04T19:36:19.972Z,101377.42
2022-09-04T19:45:57.651Z,101374.42
2022-09-04T19:46:02.085Z,101374.78
2022-09-04T19:46:11.954Z,101377.95
2022-09-04T19:48:32.516Z,101378.30
2022-09-04T19:53:29.745Z,101377.92
2022-09-04T19:54:19.667Z,101384.09
2022-09-04T19:57:31.189Z,101385.48
2022-09-04T19:59:46.075Z,101382.30
2022-09-04T20:02:32.601Z,101382.83
2022-09-04T20:05:04.959Z,101386.88
2022-09-04T20:07:44.928Z,101392.86
2022-09-04T20:10:21.921Z,101394.98
2022-09-04T20:13:09.145Z,101396.92
2022-09-04T20:15:53.226Z,101396.41
2022-09-04T20:18:39.421Z,101396.22
2022-09-04T20:21:20.288Z,101397.09
2022-09-04T20:23:54.191Z,101398.52
2022-09-04T20:26:42.583Z,101397.63
2022-09-04T20:29:25.876Z,101401.68
2022-09-04T20:32:00.302Z,101405.38
2022-09-04T20:34:38.788Z,101400.96
2022-09-04T20:37:53.895Z,101399.36
2022-09-04T20:40:42.561Z,101404.47
2022-09-04T20:43:31.955Z,101404.13
2022-09-04T20:48:13.901Z,101405.88
2022-09-04T20:52:56.058Z,101409.57
2022-09-04T20:52:57.019Z,101404.11
2022-09-04T20:55:38.455Z,101406.21
2022-09-04T21:01:16.380Z,101411.30
2022-09-04T21:03:23.995Z,101415.69
2022-09-04T21:04:54.887Z,101420.43
2022-09-04T21:07:41.155Z,101429.22
2022-09-04T21:10:29.308Z,101425.67
2022-09-04T21:13:14.012Z,101429.67
2022-09-04T21:16:05.678Z,101431.56
2022-09-04T21:18:46.146Z,101431.20
2022-09-04T21:21:47.275Z,101436.45
2022-09-04T21:24:37.773Z,101446.50
2022-09-04T21:27:28.253Z,101447.92
2022-09-04T21:30:02.996Z,101449.70
2022-09-04T21:33:23.879Z,101452.35
2022-09-04T21:35:55.774Z,101455.38
2022-09-04T21:39:10.596Z,101458.71
2022-09-04T21:42:25.462Z,101459.07
2022-09-04T21:45:31.960Z,101453.79
2022-09-04T21:48:37.148Z,101452.72
2022-09-04T21:51:43.729Z,101456.41
2022-09-04T21:56:21.438Z,101454.83
2022-09-04T22:02:25.004Z,101456.06
2022-09-04T22:02:46.275Z,101453.06
2022-09-04T22:03:30.013Z,101456.41
2022-09-04T22:07:11.098Z,101462.21
2022-09-04T22:13:29.711Z,101466.45
2022-09-04T22:13:42.850Z,101464.31
2022-09-04T22:16:00.645Z,101469.25
2022-09-04T22:18:47.905Z,101465.91
2022-09-04T22:22:02.129Z,101467.65
2022-09-04T22:24:51.848Z,101468.70
2022-09-04T22:28:08.149Z,101469.23
2022-09-04T22:31:03.759Z,101470.45
2022-09-04T22:34:15.133Z,101473.26
2022-09-04T22:37:09.201Z,101470.25
2022-09-04T22:39:46.673Z,101471.48
2022-09-04T22:42:33.837Z,101468.11
2022-09-04T22:45:39.386Z,101475.15
2022-09-04T22:48:43.424Z,101473.91
2022-09-04T22:51:28.185Z,101480.05
2022-09-04T22:54:18.469Z,101477.94
2022-09-04T22:57:02.492Z,101475.28
2022-09-04T23:00:01.971Z,101476.88
2022-09-04T23:03:10.161Z,101475.64
2022-09-04T23:07:54.770Z,101475.98
2022-09-04T23:13:49.202Z,101474.73
2022-09-04T23:13:52.294Z,101477.55
2022-09-04T23:15:49.289Z,101477.54
2022-09-04T23:22:02.537Z,101482.11
2022-09-04T23:26:33.954Z,101477.16
2022-09-04T23:26:41.691Z,101477.14
2022-09-04T23:28:39.463Z,101474.67
2022-09-04T23:31:28.547Z,101478.89
2022-09-04T23:34:36.758Z,101477.12
2022-09-04T23:38:03.170Z,101480.10
2022-09-04T23:40:55.266Z,101481.81
2022-09-04T23:44:29.155Z,101484.64
2022-09-04T23:47:47.378Z,101481.64
2022-09-04T23:50:43.565Z,101481.61
2022-09-04T23:54:25.282Z,101481.40
2022-09-04T23:57:35.351Z,101480.67
